sensor_id;sensor_type;location;lat;lon;timestamp;pressure;altitude;pressure_sealevel;temperature;humidity
39141;BME280;24875;48.436;10.298;2024-01-25T00:01:12;97350.78;;;10.04;100.00
39141;BME280;24875;48.436;10.298;2024-01-25T00:03:39;97361.31;;;10.04;100.00
39141;BME280;24875;48.436;10.298;2024-01-25T00:06:07;97361.00;;;10.07;100.00
39141;BME280;24875;48.436;10.298;2024-01-25T00:08:34;97365.19;;;10.00;100.00
39141;BME280;24875;48.436;10.298;2024-01-25T00:11:01;97358.78;;;10.03;100.00
39141;BME280;24875;48.436;10.298;2024-01-25T00:13:28;97355.09;;;10.23;100.00
39141;BME280;24875;48.436;10.298;2024-01-25T00:15:54;97364.69;;;10.14;100.00
39141;BME280;24875;48.436;10.298;2024-01-25T00:18:21;97371.88;;;10.22;100.00
39141;BME280;24875;48.436;10.298;2024-01-25T00:20:48;97376.47;;;10.20;100.00
39141;BME280;24875;48.436;10.298;2024-01-25T00:23:16;97380.16;;;10.00;100.00
39141;BME280;24875;48.436;10.298;2024-01-25T00:25:42;97372.41;;;10.25;100.00
39141;BME280;24875;48.436;10.298;2024-01-25T00:28:09;97379.03;;;10.02;100.00
39141;BME280;24875;48.436;10.298;2024-01-25T00:30:35;97368.75;;;9.72;100.00
39141;BME280;24875;48.436;10.298;2024-01-25T00:33:02;97370.78;;;9.88;100.00
39141;BME280;24875;48.436;10.298;2024-01-25T00:35:29;97361.66;;;10.09;100.00
39141;BME280;24875;48.436;10.298;2024-01-25T00:37:56;97370.56;;;10.08;100.00
39141;BME280;24875;48.436;10.298;2024-01-25T00:40:25;97355.50;;;10.18;100.00
39141;BME280;24875;48.436;10.298;2024-01-25T00:42:52;97346.22;;;9.87;100.00
39141;BME280;24875;48.436;10.298;2024-01-25T00:45:19;97333.91;;;9.88;100.00
39141;BME280;24875;48.436;10.298;2024-01-25T00:47:46;97333.38;;;9.84;100.00
39141;BME280;24875;48.436;10.298;2024-01-25T00:50:13;97330.03;;;9.82;100.00
39141;BME280;24875;48.436;10.298;2024-01-25T00:52:42;97333.31;;;9.67;100.00
39141;BME280;24875;48.436;10.298;2024-01-25T00:55:10;97339.56;;;9.93;100.00
39141;BME280;24875;48.436;10.298;2024-01-25T00:57:39;97342.16;;;10.02;100.00
39141;BME280;24875;48.436;10.298;2024-01-25T01:00:06;97351.66;;;9.86;100.00
39141;BME280;24875;48.436;10.298;2024-01-25T01:02:35;97353.00;;;9.99;100.00
39141;BME280;24875;48.436;10.298;2024-01-25T01:05:03;97341.97;;;9.86;100.00
39141;BME280;24875;48.436;10.298;2024-01-25T01:07:30;97344.44;;;9.88;100.00
39141;BME280;24875;48.436;10.298;2024-01-25T01:09:56;97340.53;;;9.56;100.00
39141;BME280;24875;48.436;10.298;2024-01-25T01:12:23;97335.13;;;9.67;100.00
39141;BME280;24875;48.436;10.298;2024-01-25T01:14:50;97347.75;;;9.90;100.00
39141;BME280;24875;48.436;10.298;2024-01-25T01:17:17;97349.97;;;9.85;100.00
39141;BME280;24875;48.436;10.298;2024-01-25T01:19:44;97346.59;;;9.75;100.00
39141;BME280;24875;48.436;10.298;2024-01-25T01:22:10;97357.22;;;9.73;100.00
39141;BME280;24875;48.436;10.298;2024-01-25T01:24:37;97356.38;;;9.82;100.00
39141;BME280;24875;48.436;10.298;2024-01-25T01:27:03;97347.09;;;9.78;100.00
39141;BME280;24875;48.436;10.298;2024-01-25T01:29:30;97353.00;;;9.99;100.00
39141;BME280;24875;48.436;10.298;2024-01-25T01:31:58;97350.84;;;10.12;100.00
39141;BME280;24875;48.436;10.298;2024-01-25T01:34:24;97343.59;;;9.97;100.00
39141;BME280;24875;48.436;10.298;2024-01-25T01:36:51;97349.69;;;9.97;100.00
39141;BME280;24875;48.436;10.298;2024-01-25T01:39:17;97343.44;;;9.98;100.00
39141;BME280;24875;48.436;10.298;2024-01-25T01:41:46;97343.88;;;10.38;100.00
39141;BME280;24875;48.436;10.298;2024-01-25T01:44:13;97348.28;;;9.93;100.00
39141;BME280;24875;48.436;10.298;2024-01-25T01:46:40;97346.34;;;9.95;100.00
39141;BME280;24875;48.436;10.298;2024-01-25T01:49:11;97337.06;;;9.91;100.00
39141;BME280;24875;48.436;10.298;2024-01-25T01:51:38;97342.06;;;9.94;100.00
39141;BME280;24875;48.436;10.298;2024-01-25T01:54:07;97332.69;;;10.09;100.00
39141;BME280;24875;48.436;10.298;2024-01-25T01:56:34;97338.84;;;10.00;100.00
39141;BME280;24875;48.436;10.298;2024-01-25T01:59:01;97337.94;;;9.82;100.00
39141;BME280;24875;48.436;10.298;2024-01-25T02:01:29;97335.28;;;9.92;100.00
39141;BME280;24875;48.436;10.298;2024-01-25T02:03:55;97330.03;;;9.82;100.00
39141;BME280;24875;48.436;10.298;2024-01-25T02:06:23;97320.00;;;10.05;100.00
39141;BME280;24875;48.436;10.298;2024-01-25T02:08:50;97323.00;;;9.83;100.00
39141;BME280;24875;48.436;10.298;2024-01-25T02:11:18;97334.34;;;9.83;100.00
39141;BME280;24875;48.436;10.298;2024-01-25T02:13:45;97325.06;;;9.79;100.00
39141;BME280;24875;48.436;10.298;2024-01-25T02:16:12;97331.31;;;9.78;100.00
39141;BME280;24875;48.436;10.298;2024-01-25T02:18:40;97343.84;;;9.94;100.00
39141;BME280;24875;48.436;10.298;2024-01-25T02:21:07;97343.84;;;9.94;100.00
39141;BME280;24875;48.436;10.298;2024-01-25T02:23:35;97344.41;;;9.97;100.00
39141;BME280;24875;48.436;10.298;2024-01-25T02:26:01;97355.44;;;9.74;100.00
39141;BME280;24875;48.436;10.298;2024-01-25T02:28:28;97339.69;;;9.65;100.00
39141;BME280;24875;48.436;10.298;2024-01-25T02:30:54;97356.16;;;9.67;100.00
39141;BME280;24875;48.436;10.298;2024-01-25T02:33:21;97335.41;;;9.64;100.00
39141;BME280;24875;48.436;10.298;2024-01-25T02:35:47;97335.13;;;9.67;100.00
39141;BME280;24875;48.436;10.298;2024-01-25T02:38:14;97331.78;;;9.65;100.00
39141;BME280;24875;48.436;10.298;2024-01-25T02:40:41;97337.22;;;9.90;100.00
39141;BME280;24875;48.436;10.298;2024-01-25T02:43:08;97326.81;;;9.62;100.00
39141;BME280;24875;48.436;10.298;2024-01-25T02:45:34;97323.63;;;9.68;100.00
39141;BME280;24875;48.436;10.298;2024-01-25T02:48:01;97307.47;;;9.80;100.00
39141;BME280;24875;48.436;10.298;2024-01-25T02:50:29;97302.66;;;9.75;100.00
39141;BME280;24875;48.436;10.298;2024-01-25T02:52:55;97298.56;;;9.64;100.00
39141;BME280;24875;48.436;10.298;2024-01-25T02:55:22;97304.34;;;9.67;100.00
39141;BME280;24875;48.436;10.298;2024-01-25T02:57:50;97298.03;;;9.87;100.00
39141;BME280;24875;48.436;10.298;2024-01-25T03:00:17;97291.66;;;9.63;100.00
39141;BME280;24875;48.436;10.298;2024-01-25T03:02:44;97283.94;;;9.52;100.00
39141;BME280;24875;48.436;10.298;2024-01-25T03:05:10;97280.16;;;9.64;100.00
39141;BME280;24875;48.436;10.298;2024-01-25T03:07:37;97279.16;;;9.65;100.00
39141;BME280;24875;48.436;10.298;2024-01-25T03:10:04;97277.53;;;9.64;100.00
39141;BME280;24875;48.436;10.298;2024-01-25T03:12:31;97289.19;;;9.52;100.00
39141;BME280;24875;48.436;10.298;2024-01-25T03:14:59;97292.13;;;9.75;100.00
39141;BME280;24875;48.436;10.298;2024-01-25T03:17:25;97294.44;;;9.52;100.00
39141;BME280;24875;48.436;10.298;2024-01-25T03:19:52;97285.69;;;9.61;100.00
39141;BME280;24875;48.436;10.298;2024-01-25T03:22:18;97285.41;;;9.64;100.00
39141;BME280;24875;48.436;10.298;2024-01-25T03:24:45;97288.56;;;9.67;100.00
39141;BME280;24875;48.436;10.298;2024-01-25T03:27:12;97291.59;;;9.72;100.00
39141;BME280;24875;48.436;10.298;2024-01-25T03:29:41;97294.75;;;9.75;100.00
39141;BME280;24875;48.436;10.298;2024-01-25T03:32:08;97303.28;;;9.60;100.00
39141;BME280;24875;48.436;10.298;2024-01-25T03:34:35;97317.13;;;9.26;100.00
39141;BME280;24875;48.436;10.298;2024-01-25T03:37:02;97318.31;;;9.41;100.00
39141;BME280;24875;48.436;10.298;2024-01-25T03:39:28;97322.44;;;9.53;100.00
39141;BME280;24875;48.436;10.298;2024-01-25T03:42:00;97317.97;;;9.63;100.00
39141;BME280;24875;48.436;10.298;2024-01-25T03:44:27;97332.56;;;9.48;100.00
39141;BME280;24875;48.436;10.298;2024-01-25T03:46:53;97332.75;;;9.37;100.00
39141;BME280;24875;48.436;10.298;2024-01-25T03:49:21;97337.66;;;9.49;100.00
39141;BME280;24875;48.436;10.298;2024-01-25T03:51:49;97351.88;;;9.20;100.00
39141;BME280;24875;48.436;10.298;2024-01-25T03:54:16;97341.06;;;9.32;100.00
39141;BME280;24875;48.436;10.298;2024-01-25T03:56:42;97340.50;;;9.29;100.00
39141;BME280;24875;48.436;10.298;2024-01-25T03:59:09;97344.13;;;9.18;100.00
39141;BME280;24875;48.436;10.298;2024-01-25T04:01:41;97345.25;;;9.16;100.00
39141;BME280;24875;48.436;10.298;2024-01-25T04:04:08;97342.50;;;8.89;100.00
39141;BME280;24875;48.436;10.298;2024-01-25T04:06:37;97335.03;;;8.94;100.00
39141;BME280;24875;48.436;10.298;2024-01-25T04:09:04;97334.75;;;8.97;100.00
39141;BME280;24875;48.436;10.298;2024-01-25T04:11:30;97333.69;;;8.71;100.00
39141;BME280;24875;48.436;10.298;2024-01-25T04:13:57;97335.34;;;8.91;100.00
39141;BME280;24875;48.436;10.298;2024-01-25T04:16:24;97339.75;;;8.91;100.00
39141;BME280;24875;48.436;10.298;2024-01-25T04:18:50;97339.47;;;8.84;100.00
39141;BME280;24875;48.436;10.298;2024-01-25T04:21:17;97343.91;;;8.84;100.00
39141;BME280;24875;48.436;10.298;2024-01-25T04:23:44;97333.94;;;8.97;100.00
39141;BME280;24875;48.436;10.298;2024-01-25T04:26:11;97334.22;;;8.75;100.00
39141;BME280;24875;48.436;10.298;2024-01-25T04:28:37;97331.44;;;8.95;100.00
39141;BME280;24875;48.436;10.298;2024-01-25T04:31:04;97329.50;;;8.88;100.00
39141;BME280;24875;48.436;10.298;2024-01-25T04:33:30;97326.50;;;8.73;100.00
39141;BME280;24875;48.436;10.298;2024-01-25T04:35:57;97335.47;;;8.90;100.00
39141;BME280;24875;48.436;10.298;2024-01-25T04:38:23;97344.47;;;8.87;100.00
39141;BME280;24875;48.436;10.298;2024-01-25T04:40:51;97341.63;;;9.17;100.00
39141;BME280;24875;48.436;10.298;2024-01-25T04:43:18;97338.50;;;9.04;100.00
39141;BME280;24875;48.436;10.298;2024-01-25T04:45:44;97348.72;;;9.07;100.00
39141;BME280;24875;48.436;10.298;2024-01-25T04:48:11;97345.25;;;8.97;100.00
39141;BME280;24875;48.436;10.298;2024-01-25T04:50:37;97349.97;;;8.84;100.00
39141;BME280;24875;48.436;10.298;2024-01-25T04:53:04;97357.75;;;8.76;100.00
39141;BME280;24875;48.436;10.298;2024-01-25T04:55:31;97360.75;;;8.91;100.00
39141;BME280;24875;48.436;10.298;2024-01-25T04:57:58;97363.00;;;8.95;100.00
39141;BME280;24875;48.436;10.298;2024-01-25T05:00:25;97371.44;;;8.89;100.00
39141;BME280;24875;48.436;10.298;2024-01-25T05:02:51;97369.50;;;8.82;100.00
39141;BME280;24875;48.436;10.298;2024-01-25T05:05:18;97364.22;;;8.82;100.00
39141;BME280;24875;48.436;10.298;2024-01-25T05:07:44;97385.09;;;9.02;100.00
39141;BME280;24875;48.436;10.298;2024-01-25T05:10:11;97383.72;;;8.98;100.00
39141;BME280;24875;48.436;10.298;2024-01-25T05:12:38;97381.53;;;8.94;100.00
39141;BME280;24875;48.436;10.298;2024-01-25T05:15:07;97385.66;;;9.15;100.00
39141;BME280;24875;48.436;10.298;2024-01-25T05:17:33;97401.31;;;9.07;100.00
39141;BME280;24875;48.436;10.298;2024-01-25T05:20:00;97402.69;;;9.11;100.00
39141;BME280;24875;48.436;10.298;2024-01-25T05:22:28;97404.75;;;9.17;100.00
39141;BME280;24875;48.436;10.298;2024-01-25T05:24:54;97416.25;;;9.25;100.00
39141;BME280;24875;48.436;10.298;2024-01-25T05:27:21;97410.53;;;9.30;100.00
39141;BME280;24875;48.436;10.298;2024-01-25T05:29:48;97419.56;;;9.18;100.00
39141;BME280;24875;48.436;10.298;2024-01-25T05:32:16;97423.28;;;9.34;100.00
39141;BME280;24875;48.436;10.298;2024-01-25T05:34:42;97426.78;;;9.25;100.00
39141;BME280;24875;48.436;10.298;2024-01-25T05:37:09;97424.53;;;9.21;100.00
39141;BME280;24875;48.436;10.298;2024-01-25T05:39:35;97425.78;;;9.26;100.00
39141;BME280;24875;48.436;10.298;2024-01-25T05:42:03;97421.91;;;9.21;100.00
39141;BME280;24875;48.436;10.298;2024-01-25T05:44:29;97431.31;;;9.23;100.00
39141;BME280;24875;48.436;10.298;2024-01-25T05:46:56;97434.50;;;9.27;100.00
39141;BME280;24875;48.436;10.298;2024-01-25T05:49:24;97438.53;;;9.31;100.00
39141;BME280;24875;48.436;10.298;2024-01-25T05:51:50;97444.91;;;9.09;100.00
39141;BME280;24875;48.436;10.298;2024-01-25T05:54:17;97437.28;;;8.88;100.00
39141;BME280;24875;48.436;10.298;2024-01-25T05:56:44;97439.09;;;8.87;100.00
39141;BME280;24875;48.436;10.298;2024-01-25T05:59:10;97448.34;;;8.82;100.00
39141;BME280;24875;48.436;10.298;2024-01-25T06:01:37;97449.59;;;8.78;100.00
39141;BME280;24875;48.436;10.298;2024-01-25T06:04:03;97450.97;;;8.82;100.00
39141;BME280;24875;48.436;10.298;2024-01-25T06:06:31;97446.28;;;8.85;100.00
39141;BME280;24875;48.436;10.298;2024-01-25T06:08:58;97449.31;;;8.71;100.00
39141;BME280;24875;48.436;10.298;2024-01-25T06:11:24;97449.16;;;8.73;100.00
39141;BME280;24875;48.436;10.298;2024-01-25T06:13:51;97451.63;;;8.55;100.00
39141;BME280;24875;48.436;10.298;2024-01-25T06:16:17;97458.81;;;8.63;100.00
39141;BME280;24875;48.436;10.298;2024-01-25T06:18:43;97460.09;;;8.68;100.00
39141;BME280;24875;48.436;10.298;2024-01-25T06:21:10;97468.22;;;8.65;100.00
39141;BME280;24875;48.436;10.298;2024-01-25T06:23:38;97472.28;;;8.88;100.00
39141;BME280;24875;48.436;10.298;2024-01-25T06:26:04;97467.31;;;8.76;100.00
39141;BME280;24875;48.436;10.298;2024-01-25T06:28:31;97478.22;;;8.71;100.00
39141;BME280;24875;48.436;10.298;2024-01-25T06:31:00;97483.06;;;8.95;100.00
39141;BME280;24875;48.436;10.298;2024-01-25T06:33:27;97496.16;;;8.66;100.00
39141;BME280;24875;48.436;10.298;2024-01-25T06:35:53;97487.72;;;8.63;100.00
39141;BME280;24875;48.436;10.298;2024-01-25T06:38:20;97489.53;;;8.62;100.00
39141;BME280;24875;48.436;10.298;2024-01-25T06:40:48;97487.44;;;8.56;100.00
39141;BME280;24875;48.436;10.298;2024-01-25T06:43:14;97493.50;;;8.48;100.00
39141;BME280;24875;48.436;10.298;2024-01-25T06:45:41;97503.59;;;8.52;100.00
39141;BME280;24875;48.436;10.298;2024-01-25T06:48:07;97495.09;;;8.30;100.00
39141;BME280;24875;48.436;10.298;2024-01-25T06:50:34;97491.66;;;8.39;100.00
39141;BME280;24875;48.436;10.298;2024-01-25T06:53:01;97488.94;;;8.40;100.00
39141;BME280;24875;48.436;10.298;2024-01-25T06:55:28;97490.56;;;8.41;100.00
39141;BME280;24875;48.436;10.298;2024-01-25T06:57:55;97475.16;;;8.66;100.00
39141;BME280;24875;48.436;10.298;2024-01-25T07:00:22;97477.34;;;8.61;100.00
39141;BME280;24875;48.436;10.298;2024-01-25T07:02:49;97482.16;;;8.56;100.00
39141;BME280;24875;48.436;10.298;2024-01-25T07:05:15;97491.63;;;8.20;100.00
39141;BME280;24875;48.436;10.298;2024-01-25T07:07:42;97491.13;;;8.45;100.00
39141;BME280;24875;48.436;10.298;2024-01-25T07:10:08;97497.19;;;8.36;100.00
39141;BME280;24875;48.436;10.298;2024-01-25T07:12:35;97494.34;;;8.57;100.00
39141;BME280;24875;48.436;10.298;2024-01-25T07:15:03;97504.47;;;8.62;100.00
39141;BME280;24875;48.436;10.298;2024-01-25T07:17:30;97507.63;;;8.47;100.00
39141;BME280;24875;48.436;10.298;2024-01-25T07:19:56;97510.97;;;8.67;100.00
39141;BME280;24875;48.436;10.298;2024-01-25T07:22:23;97520.91;;;8.54;100.00
39141;BME280;24875;48.436;10.298;2024-01-25T07:24:50;97515.84;;;8.33;100.00
39141;BME280;24875;48.436;10.298;2024-01-25T07:27:16;97515.72;;;8.44;100.00
39141;BME280;24875;48.436;10.298;2024-01-25T07:29:43;97516.09;;;8.30;100.00
39141;BME280;24875;48.436;10.298;2024-01-25T07:32:12;97519.81;;;8.57;100.00
39141;BME280;24875;48.436;10.298;2024-01-25T07:34:39;97514.69;;;8.26;100.00
39141;BME280;24875;48.436;10.298;2024-01-25T07:37:05;97513.69;;;8.47;100.00
39141;BME280;24875;48.436;10.298;2024-01-25T07:39:31;97524.94;;;8.68;100.00
39141;BME280;24875;48.436;10.298;2024-01-25T07:41:58;97526.09;;;8.45;100.00
39141;BME280;24875;48.436;10.298;2024-01-25T07:44:24;97529.28;;;8.78;100.00
39141;BME280;24875;48.436;10.298;2024-01-25T07:46:51;97534.81;;;8.94;100.00
39141;BME280;24875;48.436;10.298;2024-01-25T07:49:19;97539.69;;;9.08;100.00
39141;BME280;24875;48.436;10.298;2024-01-25T07:51:46;97543.00;;;9.01;100.00
39141;BME280;24875;48.436;10.298;2024-01-25T07:54:14;97548.00;;;9.13;100.00
39141;BME280;24875;48.436;10.298;2024-01-25T07:56:40;97553.56;;;9.10;100.00
39141;BME280;24875;48.436;10.298;2024-01-25T07:59:07;97571.06;;;8.91;100.00
39141;BME280;24875;48.436;10.298;2024-01-25T08:01:33;97565.41;;;9.05;100.00
39141;BME280;24875;48.436;10.298;2024-01-25T08:04:00;97567.81;;;9.17;100.00
39141;BME280;24875;48.436;10.298;2024-01-25T08:06:29;97566.28;;;9.43;100.00
39141;BME280;24875;48.436;10.298;2024-01-25T08:08:56;97571.97;;;9.29;100.00
39141;BME280;24875;48.436;10.298;2024-01-25T08:11:22;97569.75;;;9.24;100.00
39141;BME280;24875;48.436;10.298;2024-01-25T08:13:49;97567.09;;;9.15;100.00
39141;BME280;24875;48.436;10.298;2024-01-25T08:16:16;97557.28;;;9.26;100.00
39141;BME280;24875;48.436;10.298;2024-01-25T08:18:44;97552.31;;;9.14;100.00
39141;BME280;24875;48.436;10.298;2024-01-25T08:21:11;97549.81;;;9.31;100.00
39141;BME280;24875;48.436;10.298;2024-01-25T08:23:39;97564.38;;;9.45;100.00
39141;BME280;24875;48.436;10.298;2024-01-25T08:26:05;97570.88;;;9.41;100.00
39141;BME280;24875;48.436;10.298;2024-01-25T08:28:34;97574.22;;;9.52;100.00
39141;BME280;24875;48.436;10.298;2024-01-25T08:31:01;97579.59;;;9.51;100.00
39141;BME280;24875;48.436;10.298;2024-01-25T08:33:28;97569.75;;;9.53;100.00
39141;BME280;24875;48.436;10.298;2024-01-25T08:35:57;97560.91;;;9.54;100.00
39141;BME280;24875;48.436;10.298;2024-01-25T08:38:24;97555.78;;;9.43;100.00
39141;BME280;24875;48.436;10.298;2024-01-25T08:40:51;97551.63;;;9.50;100.00
39141;BME280;24875;48.436;10.298;2024-01-25T08:43:18;97548.16;;;9.40;100.00
39141;BME280;24875;48.436;10.298;2024-01-25T08:45:45;97553.28;;;9.51;100.00
39141;BME280;24875;48.436;10.298;2024-01-25T08:48:12;97558.53;;;9.41;100.00
39141;BME280;24875;48.436;10.298;2024-01-25T08:50:38;97554.53;;;9.47;100.00
39141;BME280;24875;48.436;10.298;2024-01-25T08:53:05;97566.44;;;9.51;100.00
39141;BME280;24875;48.436;10.298;2024-01-25T08:55:32;97570.47;;;9.55;100.00
39141;BME280;24875;48.436;10.298;2024-01-25T08:58:00;97566.44;;;9.51;100.00
39141;BME280;24875;48.436;10.298;2024-01-25T09:00:26;97572.53;;;9.61;100.00
39141;BME280;24875;48.436;10.298;2024-01-25T09:02:53;97575.03;;;9.71;100.00
39141;BME280;24875;48.436;10.298;2024-01-25T09:05:20;97580.56;;;9.68;100.00
39141;BME280;24875;48.436;10.298;2024-01-25T09:07:46;97586.09;;;9.84;100.00
39141;BME280;24875;48.436;10.298;2024-01-25T09:10:15;97594.97;;;9.83;100.00
39141;BME280;24875;48.436;10.298;2024-01-25T09:12:42;97595.38;;;9.98;100.00
39141;BME280;24875;48.436;10.298;2024-01-25T09:15:10;97591.63;;;10.29;100.00
39141;BME280;24875;48.436;10.298;2024-01-25T09:17:37;97594.69;;;10.05;100.00
39141;BME280;24875;48.436;10.298;2024-01-25T09:20:04;97598.97;;;10.25;100.00
39141;BME280;24875;48.436;10.298;2024-01-25T09:22:31;97589.88;;;10.01;100.00
39141;BME280;24875;48.436;10.298;2024-01-25T09:24:58;97589.72;;;10.02;100.00
39141;BME280;24875;48.436;10.298;2024-01-25T09:27:24;97593.31;;;9.92;100.00
39141;BME280;24875;48.436;10.298;2024-01-25T09:29:51;97595.38;;;10.17;100.00
39141;BME280;24875;48.436;10.298;2024-01-25T09:32:19;97604.97;;;10.08;100.00
39141;BME280;24875;48.436;10.298;2024-01-25T09:34:46;97607.44;;;9.91;100.00
39141;BME280;24875;48.436;10.298;2024-01-25T09:37:13;97609.13;;;10.01;100.00
39141;BME280;24875;48.436;10.298;2024-01-25T09:39:40;97612.44;;;10.13;100.00
39141;BME280;24875;48.436;10.298;2024-01-25T09:42:07;97609.47;;;10.44;100.00
39141;BME280;24875;48.436;10.298;2024-01-25T09:44:34;97618.34;;;10.43;100.00
39141;BME280;24875;48.436;10.298;2024-01-25T09:47:03;97628.28;;;10.58;100.00
39141;BME280;24875;48.436;10.298;2024-01-25T09:49:34;97633.03;;;10.82;100.00
39141;BME280;24875;48.436;10.298;2024-01-25T09:52:01;97645.72;;;10.69;100.00
39141;BME280;24875;48.436;10.298;2024-01-25T09:54:30;97651.59;;;10.53;100.00
39141;BME280;24875;48.436;10.298;2024-01-25T09:56:56;97648.44;;;10.40;100.00
39141;BME280;24875;48.436;10.298;2024-01-25T09:59:23;97640.25;;;10.34;100.00
39141;BME280;24875;48.436;10.298;2024-01-25T10:01:49;97634.81;;;10.54;100.00
39141;BME280;24875;48.436;10.298;2024-01-25T10:04:16;97641.38;;;10.32;100.00
39141;BME280;24875;48.436;10.298;2024-01-25T10:06:46;97626.34;;;10.51;100.00
39141;BME280;24875;48.436;10.298;2024-01-25T10:09:13;97626.13;;;10.35;100.00
39141;BME280;24875;48.436;10.298;2024-01-25T10:11:39;97619.34;;;10.23;100.00
39141;BME280;24875;48.436;10.298;2024-01-25T10:14:06;97613.56;;;10.01;100.00
39141;BME280;24875;48.436;10.298;2024-01-25T10:16:33;97612.69;;;10.19;100.00
39141;BME280;24875;48.436;10.298;2024-01-25T10:19:01;97614.06;;;10.23;100.00
39141;BME280;24875;48.436;10.298;2024-01-25T10:21:28;97611.09;;;10.45;100.00
39141;BME280;24875;48.436;10.298;2024-01-25T10:23:56;97609.16;;;10.83;100.00
39141;BME280;24875;48.436;10.298;2024-01-25T10:26:26;97605.22;;;10.96;100.00
39141;BME280;24875;48.436;10.298;2024-01-25T10:28:53;97604.81;;;10.65;100.00
39141;BME280;24875;48.436;10.298;2024-01-25T10:31:22;97596.91;;;10.92;100.00
39141;BME280;24875;48.436;10.298;2024-01-25T10:33:51;97595.13;;;11.19;100.00
39141;BME280;24875;48.436;10.298;2024-01-25T10:36:19;97586.91;;;10.95;100.00
39141;BME280;24875;48.436;10.298;2024-01-25T10:38:48;97597.88;;;10.91;100.00
39141;BME280;24875;48.436;10.298;2024-01-25T10:41:16;97580.16;;;11.10;100.00
39141;BME280;24875;48.436;10.298;2024-01-25T10:43:43;97579.81;;;10.95;100.00
39141;BME280;24875;48.436;10.298;2024-01-25T10:46:10;97579.72;;;10.88;98.81
39141;BME280;24875;48.436;10.298;2024-01-25T10:48:38;97576.38;;;11.12;97.76
39141;BME280;24875;48.436;10.298;2024-01-25T10:51:05;97576.44;;;10.76;100.00
39141;BME280;24875;48.436;10.298;2024-01-25T10:53:33;97561.41;;;10.86;99.87
39141;BME280;24875;48.436;10.298;2024-01-25T10:56:00;97561.19;;;10.80;100.00
39141;BME280;24875;48.436;10.298;2024-01-25T10:58:31;97554.16;;;10.88;100.00
39141;BME280;24875;48.436;10.298;2024-01-25T11:00:59;97556.78;;;10.71;100.00
39141;BME280;24875;48.436;10.298;2024-01-25T11:03:26;97546.72;;;10.57;100.00
39141;BME280;24875;48.436;10.298;2024-01-25T11:05:54;97550.56;;;10.89;100.00
39141;BME280;24875;48.436;10.298;2024-01-25T11:08:21;97548.13;;;10.51;100.00
39141;BME280;24875;48.436;10.298;2024-01-25T11:10:51;97549.59;;;10.63;100.00
39141;BME280;24875;48.436;10.298;2024-01-25T11:13:24;97547.03;;;10.81;100.00
39141;BME280;24875;48.436;10.298;2024-01-25T11:15:53;97547.13;;;10.52;100.00
39141;BME280;24875;48.436;10.298;2024-01-25T11:18:20;97548.47;;;10.66;100.00
39141;BME280;24875;48.436;10.298;2024-01-25T11:20:47;97541.28;;;10.85;100.00
39141;BME280;24875;48.436;10.298;2024-01-25T11:23:15;97537.69;;;10.86;100.00
39141;BME280;24875;48.436;10.298;2024-01-25T11:25:44;97534.69;;;10.98;100.00
39141;BME280;24875;48.436;10.298;2024-01-25T11:28:13;97522.53;;;10.88;100.00
39141;BME280;24875;48.436;10.298;2024-01-25T11:30:41;97518.88;;;10.98;100.00
39141;BME280;24875;48.436;10.298;2024-01-25T11:33:11;97523.06;;;10.92;100.00
39141;BME280;24875;48.436;10.298;2024-01-25T11:35:39;97516.50;;;10.78;100.00
39141;BME280;24875;48.436;10.298;2024-01-25T11:38:07;97508.72;;;10.77;100.00
39141;BME280;24875;48.436;10.298;2024-01-25T11:40:34;97502.84;;;10.83;100.00
39141;BME280;24875;48.436;10.298;2024-01-25T11:43:01;97502.59;;;11.03;100.00
39141;BME280;24875;48.436;10.298;2024-01-25T11:45:28;97502.44;;;11.04;100.00
39141;BME280;24875;48.436;10.298;2024-01-25T11:47:54;97504.75;;;10.90;100.00
39141;BME280;24875;48.436;10.298;2024-01-25T11:50:22;97509.25;;;10.80;100.00
39141;BME280;24875;48.436;10.298;2024-01-25T11:52:49;97505.25;;;10.76;100.00
39141;BME280;24875;48.436;10.298;2024-01-25T11:55:16;97506.53;;;10.72;98.17
39141;BME280;24875;48.436;10.298;2024-01-25T11:57:42;97515.09;;;10.57;96.71
39141;BME280;24875;48.436;10.298;2024-01-25T12:00:12;97503.56;;;11.02;96.22
39141;BME280;24875;48.436;10.298;2024-01-25T12:02:40;97512.31;;;11.02;94.92
39141;BME280;24875;48.436;10.298;2024-01-25T12:05:10;97509.16;;;11.16;93.70
39141;BME280;24875;48.436;10.298;2024-01-25T12:07:39;97499.56;;;11.33;93.06
39141;BME280;24875;48.436;10.298;2024-01-25T12:10:07;97502.22;;;11.33;91.98
39141;BME280;24875;48.436;10.298;2024-01-25T12:12:35;97497.41;;;11.28;91.25
39141;BME280;24875;48.436;10.298;2024-01-25T12:15:04;97485.94;;;11.37;89.95
39141;BME280;24875;48.436;10.298;2024-01-25T12:17:32;97486.91;;;11.36;90.80
39141;BME280;24875;48.436;10.298;2024-01-25T12:20:02;97482.84;;;11.59;90.99
39141;BME280;24875;48.436;10.298;2024-01-25T12:22:29;97479.97;;;11.35;90.97
39141;BME280;24875;48.436;10.298;2024-01-25T12:24:57;97475.53;;;11.36;91.68
39141;BME280;24875;48.436;10.298;2024-01-25T12:27:25;97476.41;;;11.44;93.42
39141;BME280;24875;48.436;10.298;2024-01-25T12:29:52;97473.13;;;11.42;93.43
39141;BME280;24875;48.436;10.298;2024-01-25T12:32:19;97474.25;;;11.22;93.50
39141;BME280;24875;48.436;10.298;2024-01-25T12:34:53;97476.81;;;11.66;93.06
39141;BME280;24875;48.436;10.298;2024-01-25T12:37:20;97469.34;;;11.62;91.87
39141;BME280;24875;48.436;10.298;2024-01-25T12:39:46;97469.88;;;11.91;92.22
39141;BME280;24875;48.436;10.298;2024-01-25T12:42:14;97470.44;;;11.77;90.03
39141;BME280;24875;48.436;10.298;2024-01-25T12:44:41;97469.88;;;11.48;86.74
39141;BME280;24875;48.436;10.298;2024-01-25T12:47:07;97469.44;;;11.53;88.69